aviador You're here:

KT70 Decoded Metar

in
Report Time2017-08-18 00:58:00
UTC Time2017-08-18 01:08:28
Flight Rules vfr VFR
Wind130° at 08 kt
W.Rank130° ranks 1
Current wind is above 130° avg. (7.7)
Visibility9999 m
Phenomena:N/A
Clouds:N/A
Expected CloudBase > 25,600 ft AGL from Temp-Dew spread
CeilingNone
Temp36°C
Dew Point-28°C (1% RH)
Heat Index33.2°C
AAT29.3°C
QNH1011 hPa
Raw Report
KT70 180058Z AUTO 13008KT 10SM CLR 36/M28 A2985 RMK AO2 SLP093
T03641282 $=

Extra information for KT70:More info

Social comments